createdAt,value
2023-04-06T00:03:26.517Z,101190.84
2023-04-06T00:08:29.111Z,101190.03
2023-04-06T00:13:31.070Z,101185.53
2023-04-06T00:18:33.457Z,101183.00
2023-04-06T00:23:35.608Z,101170.59
2023-04-06T00:28:38.809Z,101171.47
2023-04-06T00:33:40.995Z,101166.97
2023-04-06T00:38:43.008Z,101157.34
2023-04-06T00:43:45.209Z,101154.91
2023-04-06T00:48:47.541Z,101148.63
2023-04-06T00:53:49.758Z,101145.97
2023-04-06T00:58:51.793Z,101136.31
2023-04-06T01:03:54.371Z,101133.69
2023-04-06T01:08:56.645Z,101129.19
2023-04-06T01:13:58.611Z,101123.09
2023-04-06T01:19:00.635Z,101125.63
2023-04-06T01:24:02.602Z,101116.78
2023-04-06T01:29:05.030Z,101113.38
2023-04-06T01:34:07.519Z,101113.38
2023-04-06T01:39:09.930Z,101113.28
2023-04-06T01:44:12.069Z,101107.13
2023-04-06T01:49:14.257Z,101109.91
2023-04-06T01:54:16.370Z,101108.91
2023-04-06T01:59:18.469Z,101092.25
2023-04-06T02:04:20.879Z,101097.56
2023-04-06T02:09:22.796Z,101101.81
2023-04-06T02:14:27.243Z,101094.78
2023-04-06T02:19:29.466Z,101089.66
2023-04-06T02:24:31.487Z,101086.09
2023-04-06T02:29:33.484Z,101075.34
2023-04-06T02:34:35.750Z,101070.91
2023-04-06T02:39:37.756Z,101067.50
2023-04-06T02:44:39.811Z,101061.22
2023-04-06T02:49:42.125Z,101052.47
2023-04-06T02:54:44.284Z,101052.41
2023-04-06T02:59:46.641Z,101053.25
2023-04-06T03:04:48.804Z,101044.50
2023-04-06T03:09:51.171Z,101048.19
2023-04-06T03:14:53.021Z,101042.78
2023-04-06T03:19:55.244Z,101033.94
2023-04-06T03:24:57.166Z,101027.78
2023-04-06T03:29:59.266Z,101026.88
2023-04-06T03:35:01.622Z,101026.88
2023-04-06T03:40:04.791Z,101029.56
2023-04-06T03:45:07.228Z,101016.25
2023-04-06T03:50:09.879Z,101014.50
2023-04-06T03:55:11.831Z,101017.22
2023-04-06T04:00:14.754Z,101020.69
2023-04-06T04:05:16.813Z,101016.13
2023-04-06T04:10:18.825Z,101019.63
2023-04-06T04:15:20.858Z,101018.91
2023-04-06T04:20:23.199Z,101031.38
2023-04-06T04:25:25.289Z,101024.22
2023-04-06T04:30:27.215Z,101026.88
2023-04-06T04:35:29.264Z,101029.53
2023-04-06T04:40:31.368Z,101027.78
2023-04-06T04:45:33.398Z,101027.59
2023-04-06T04:50:35.737Z,101024.03
2023-04-06T04:55:37.847Z,101020.63
2023-04-06T05:00:39.834Z,101020.56
2023-04-06T05:05:41.754Z,101021.66
2023-04-06T05:10:44.369Z,101027.66
2023-04-06T05:15:46.563Z,101024.22
2023-04-06T05:20:48.798Z,101017.22
2023-04-06T05:25:50.755Z,101014.66
2023-04-06T05:30:53.072Z,101017.22
2023-04-06T05:35:55.219Z,101021.66
2023-04-06T05:40:57.282Z,101011.91
2023-04-06T05:45:59.399Z,101012.84
2023-04-06T05:51:02.303Z,101002.34
2023-04-06T05:56:04.791Z,101004.91
2023-04-06T06:01:07.152Z,101012.06
2023-04-06T06:06:09.246Z,101013.72
2023-04-06T06:11:11.600Z,101007.50
2023-04-06T06:16:13.458Z,101002.06
2023-04-06T06:21:16.030Z,101008.47
2023-04-06T06:26:18.370Z,101005.75
2023-04-06T06:31:24.078Z,101003.28
2023-04-06T06:36:27.177Z,101000.66
2023-04-06T06:41:29.406Z,101012.72
2023-04-06T06:46:31.392Z,101012.06
2023-04-06T06:51:33.337Z,101012.72
2023-04-06T06:56:37.210Z,101005.94
2023-04-06T07:01:39.562Z,101004.03
2023-04-06T07:06:42.037Z,101009.25
2023-04-06T07:11:44.157Z,101002.50
2023-04-06T07:16:46.718Z,100999.41
2023-04-06T07:21:50.616Z,101003.66
2023-04-06T07:26:53.012Z,101006.50
2023-04-06T07:31:55.937Z,101003.91
2023-04-06T07:36:58.049Z,100995.03
2023-04-06T07:42:00.155Z,100995.94
2023-04-06T07:47:02.423Z,100992.44
2023-04-06T07:52:05.133Z,100987.94
2023-04-06T07:57:07.221Z,100994.16
2023-04-06T08:02:09.413Z,100996.09
2023-04-06T08:07:11.802Z,100992.19
2023-04-06T08:12:13.857Z,100995.03
2023-04-06T08:17:15.797Z,100998.34
2023-04-06T08:22:17.705Z,100998.34
2023-04-06T08:27:19.685Z,101007.25
2023-04-06T08:32:21.873Z,101005.44
2023-04-06T08:37:24.198Z,100993.03
2023-04-06T08:42:27.627Z,101008.91
2023-04-06T08:47:29.830Z,101010.66
2023-04-06T08:52:34.080Z,101010.66
2023-04-06T08:57:37.700Z,101017.88
2023-04-06T09:02:47.464Z,101008.16
2023-04-06T09:07:49.508Z,101014.41
2023-04-06T09:12:52.843Z,101020.50
2023-04-06T09:17:55.885Z,101020.44
2023-04-06T09:22:58.113Z,101023.88
2023-04-06T09:28:05.231Z,101010.66
2023-04-06T09:33:08.642Z,101013.41
2023-04-06T09:38:13.551Z,101004.66
2023-04-06T09:43:26.120Z,101012.72
2023-04-06T09:48:32.108Z,101019.19
2023-04-06T09:53:38.604Z,101016.88
2023-04-06T09:58:44.248Z,101018.47
2023-04-06T10:04:07.993Z,101016.78
2023-04-06T10:09:11.089Z,101023.88
2023-04-06T10:14:13.626Z,101018.53
2023-04-06T10:19:22.061Z,101023.16
2023-04-06T10:24:23.997Z,101034.53
2023-04-06T10:29:26.174Z,101023.47
2023-04-06T10:34:36.871Z,101024.28
2023-04-06T10:39:47.828Z,101031.13
2023-04-06T10:44:51.253Z,101033.78
2023-04-06T10:49:53.322Z,101026.72
2023-04-06T10:54:56.209Z,101019.63
2023-04-06T10:59:58.456Z,101025.88
2023-04-06T11:05:00.718Z,101017.31
2023-04-06T11:15:08.503Z,101017.22
2023-04-06T11:20:13.101Z,101025.97
2023-04-06T11:25:15.208Z,101035.53
2023-04-06T11:30:17.780Z,101027.53
2023-04-06T11:35:25.578Z,101030.44
2023-04-06T11:40:29.282Z,101021.44
2023-04-06T11:45:41.247Z,101012.56
2023-04-06T11:50:43.329Z,101006.13
2023-04-06T11:55:48.294Z,101000.88
2023-04-06T12:00:54.276Z,101004.66
2023-04-06T12:05:57.155Z,101000.16
2023-04-06T12:11:01.121Z,101001.94
2023-04-06T12:16:03.186Z,100998.34
2023-04-06T12:21:07.007Z,100992.91
2023-04-06T12:26:13.166Z,100990.34
2023-04-06T12:31:20.207Z,100981.97
2023-04-06T12:36:22.586Z,100977.97
2023-04-06T12:41:24.728Z,100974.72
2023-04-06T12:46:27.473Z,100975.66
2023-04-06T12:51:29.775Z,100973.81
2023-04-06T12:56:32.588Z,100961.25
2023-04-06T13:01:35.100Z,100960.97
2023-04-06T13:06:37.538Z,100942.25
2023-04-06T13:11:40.258Z,100953.00
2023-04-06T13:16:42.581Z,100944.38
2023-04-06T13:21:44.965Z,100936.13
2023-04-06T13:26:47.437Z,100939.84
2023-04-06T13:31:49.611Z,100931.25
2023-04-06T13:36:52.044Z,100932.31
2023-04-06T13:41:57.489Z,100922.50
2023-04-06T13:46:59.718Z,100916.91
2023-04-06T13:52:01.960Z,100917.44
2023-04-06T13:57:04.342Z,100911.47
2023-04-06T14:02:08.613Z,100908.56
2023-04-06T14:07:11.680Z,100902.84
2023-04-06T14:12:13.517Z,100879.56
2023-04-06T14:17:15.502Z,100889.31
2023-04-06T14:22:19.107Z,100876.72
2023-04-06T14:27:21.391Z,100868.31
2023-04-06T14:32:23.570Z,100875.69
2023-04-06T14:37:25.532Z,100865.44
2023-04-06T14:42:27.632Z,100858.59
2023-04-06T14:47:29.635Z,100858.34
2023-04-06T14:52:32.707Z,100853.88
2023-04-06T14:57:35.397Z,100845.06
2023-04-06T15:02:38.810Z,100846.72
2023-04-06T15:07:41.304Z,100852.00
2023-04-06T15:12:43.241Z,100848.56
2023-04-06T15:17:45.251Z,100837.84
2023-04-06T15:22:47.478Z,100837.94
2023-04-06T15:27:49.599Z,100841.34
2023-04-06T15:32:56.614Z,100843.31
2023-04-06T15:37:58.826Z,100845.06
2023-04-06T15:43:00.872Z,100837.22
2023-04-06T15:48:03.761Z,100838.44
2023-04-06T15:53:07.665Z,100836.88
2023-04-06T15:58:09.716Z,100833.44
2023-04-06T16:03:12.308Z,100827.59
2023-04-06T16:08:16.684Z,100819.16
2023-04-06T16:13:18.934Z,100821.09
2023-04-06T16:18:21.359Z,100812.81
2023-04-06T16:23:23.597Z,100808.31
2023-04-06T16:28:26.101Z,100805.25
2023-04-06T16:33:28.067Z,100797.06
2023-04-06T16:38:36.014Z,100799.81
2023-04-06T16:43:38.198Z,100801.59
2023-04-06T16:48:40.414Z,100810.53
2023-04-06T16:53:42.395Z,100814.38
2023-04-06T16:58:45.716Z,100805.22
2023-04-06T17:03:48.299Z,100796.94
2023-04-06T17:08:51.475Z,100782.25
2023-04-06T17:13:53.668Z,100786.78
2023-04-06T17:18:55.758Z,100793.47
2023-04-06T17:23:57.646Z,100789.38
2023-04-06T17:28:59.835Z,100772.97
2023-04-06T17:34:01.881Z,100774.91
2023-04-06T17:39:04.331Z,100774.50
2023-04-06T17:44:06.533Z,100771.75
2023-04-06T17:49:09.730Z,100782.13
2023-04-06T17:54:12.432Z,100772.69
2023-04-06T17:59:14.398Z,100776.41
2023-04-06T18:04:16.855Z,100781.59
2023-04-06T18:09:18.867Z,100771.03
2023-04-06T18:14:20.945Z,100781.06
2023-04-06T18:19:23.280Z,100779.53
2023-04-06T18:24:40.422Z,100776.16
2023-04-06T18:29:45.765Z,100777.63
2023-04-06T18:34:48.031Z,100777.91
2023-04-06T18:39:50.616Z,100780.91
2023-04-06T18:44:52.537Z,100780.00
2023-04-06T18:49:54.676Z,100779.47
2023-04-06T18:54:56.782Z,100779.84
2023-04-06T18:59:58.853Z,100774.91
2023-04-06T19:05:01.371Z,100768.09
2023-04-06T19:10:07.027Z,100772.34
2023-04-06T19:15:09.735Z,100777.41
2023-04-06T19:20:12.072Z,100779.22
2023-04-06T19:25:14.344Z,100785.22
2023-04-06T19:30:16.815Z,100780.00
2023-04-06T19:35:19.398Z,100785.97
2023-04-06T19:40:21.519Z,100780.72
2023-04-06T19:45:23.795Z,100783.50
2023-04-06T19:50:25.831Z,100780.72
2023-04-06T19:55:27.717Z,100774.88
2023-04-06T20:00:29.952Z,100780.66
2023-04-06T20:05:31.947Z,100785.19
2023-04-06T20:10:34.411Z,100781.47
2023-04-06T20:15:36.674Z,100771.75
2023-04-06T20:20:38.829Z,100778.19
2023-04-06T20:25:40.893Z,100783.69
2023-04-06T20:30:43.080Z,100783.47
2023-04-06T20:35:45.331Z,100782.41
2023-04-06T20:40:47.430Z,100781.69
2023-04-06T20:45:49.884Z,100784.56
2023-04-06T20:50:53.026Z,100764.94
2023-04-06T20:55:55.232Z,100775.84
2023-04-06T21:00:57.591Z,100780.47
2023-04-06T21:06:00.341Z,100779.16
2023-04-06T21:11:02.917Z,100780.41
2023-04-06T21:16:05.722Z,100779.47
2023-04-06T21:21:07.730Z,100773.84
2023-04-06T21:26:13.139Z,100772.66
2023-04-06T21:31:16.973Z,100765.59
2023-04-06T21:36:19.902Z,100772.06
2023-04-06T21:41:22.334Z,100774.72
2023-04-06T21:46:24.338Z,100777.44
2023-04-06T21:51:26.253Z,100787.25
2023-04-06T21:56:28.301Z,100789.13
2023-04-06T22:01:30.188Z,100787.25
2023-04-06T22:06:32.068Z,100793.34
2023-04-06T22:11:34.135Z,100789.78
2023-04-06T22:16:36.104Z,100795.94
2023-04-06T22:21:38.313Z,100792.63
2023-04-06T22:26:40.567Z,100789.91
2023-04-06T22:31:42.818Z,100789.06
2023-04-06T22:36:46.094Z,100795.28
2023-04-06T22:41:48.035Z,100793.50
2023-04-06T22:46:50.123Z,100797.88
2023-04-06T22:51:52.341Z,100799.78
2023-04-06T22:56:55.197Z,100803.19
2023-04-06T23:01:57.595Z,100806.09
2023-04-06T23:06:59.614Z,100805.19
2023-04-06T23:12:02.402Z,100806.97
2023-04-06T23:17:04.889Z,100814.84
2023-04-06T23:22:07.080Z,100812.22
2023-04-06T23:27:08.978Z,100822.75
2023-04-06T23:32:11.265Z,100818.59
2023-04-06T23:37:13.399Z,100823.78
2023-04-06T23:42:15.477Z,100822.19
2023-04-06T23:47:17.471Z,100818.66
2023-04-06T23:52:19.695Z,100813.16
2023-04-06T23:57:21.591Z,100818.59
